Albany, Texas
Current Conditions -  °F | °C
As of 6:35 PM on Saturday 25 Oct 2014 (Local Time) from KBKD Reporting Station
Haze Haze  
Wind Chill: 30°   Ceiling: Unl
Heat Index: 30°   Visibility: 5mi
Dew Point:   Wind: 8mph
Humidity: 27%   Direction: 160°SSE
Pressure: 30.05"   Gusts: NA
Location:  32.72°N, 99.3°W
Report Text: KBKD 252335Z AUTO 16007KT 5SM HZ CLR 30/09 A3005 RMK AO2 T03040093
Loading
Personal Weather Stations






























Interactive Weather Map
Tropical Storm Tracking
New forecast layout! Learn more

10-Day Weather Forecast

Advertisements
Track Severe Weather on mobile